BAW42PB EGLL-EPWA
Flight info
| Callsign | BAW42PB |
|---|---|
| Flight time | 2h 6m |
| Altitude | 39000 |
| Route | BPK Q295 MATCH DCT REDFA DCT TACHA DCT GARLU DCT ALUKA DCT EKBUT L619 DENKO P851 BIMPA |
| Aircraft | A319/M-SDE2E3FGHIJ1RWXY/SB1 |
Departure
| Time | 2026-05-06 07:43 |
|---|---|
| Airport | London Heathrow Airport (EGLL) |
Arrival
| Time | 2026-05-06 09:49 |
|---|---|
| Airport | Warsaw Chopin Airport (EPWA) |
| Time | Latitude | Longitude | Altitude | Speed | Heading |
|---|---|---|---|---|---|
| 2026-05-06 07:04 | 51.47036 | -0.48007 | 89 ft | 0 kts | 273° |
| 2026-05-06 07:34 | 51.47035 | -0.47987 | 88 ft | 4 kts | 273° |
| 2026-05-06 07:34 | 51.47034 | -0.47944 | 86 ft | 4 kts | 273° |
| 2026-05-06 07:34 | 51.47032 | -0.47908 | 86 ft | 4 kts | 270° |
| 2026-05-06 07:34 | 51.47039 | -0.47876 | 87 ft | 4 kts | 205° |
| 2026-05-06 07:35 | 51.47062 | -0.47869 | 89 ft | 4 kts | 180° |
| 2026-05-06 07:35 | 51.47074 | -0.47870 | 86 ft | 0 kts | 180° |
| 2026-05-06 07:38 | 51.47065 | -0.47870 | 86 ft | 3 kts | 180° |
| 2026-05-06 07:38 | 51.47038 | -0.47870 | 86 ft | 5 kts | 180° |
| 2026-05-06 07:39 | 51.46992 | -0.47870 | 86 ft | 8 kts | 180° |
| 2026-05-06 07:39 | 51.46927 | -0.47870 | 89 ft | 11 kts | 180° |
| 2026-05-06 07:39 | 51.46841 | -0.47870 | 89 ft | 14 kts | 180° |
| 2026-05-06 07:39 | 51.46737 | -0.47869 | 88 ft | 16 kts | 180° |
| 2026-05-06 07:40 | 51.46659 | -0.47904 | 90 ft | 12 kts | 240° |
| 2026-05-06 07:40 | 51.46653 | -0.48049 | 90 ft | 15 kts | 270° |
| 2026-05-06 07:40 | 51.46640 | -0.48191 | 88 ft | 13 kts | 236° |
| 2026-05-06 07:40 | 51.46583 | -0.48213 | 87 ft | 3 kts | 178° |
| 2026-05-06 07:41 | 51.46555 | -0.48212 | 87 ft | 5 kts | 179° |
| 2026-05-06 07:41 | 51.46518 | -0.48210 | 88 ft | 6 kts | 177° |
| 2026-05-06 07:41 | 51.46494 | -0.48193 | 88 ft | 7 kts | 139° |
| 2026-05-06 07:41 | 51.46480 | -0.48105 | 90 ft | 10 kts | 89° |
| 2026-05-06 07:42 | 51.46481 | -0.47909 | 87 ft | 39 kts | 89° |
| 2026-05-06 07:42 | 51.46484 | -0.47132 | 87 ft | 98 kts | 90° |
| 2026-05-06 07:42 | 51.46489 | -0.45739 | 86 ft | 151 kts | 89° |
| 2026-05-06 07:42 | 51.46513 | -0.43917 | 508 ft | 164 kts | 86° |
| 2026-05-06 07:43 | 51.46562 | -0.42097 | 1210 ft | 164 kts | 79° |
| 2026-05-06 07:43 | 51.47021 | -0.40384 | 1695 ft | 177 kts | 50° |
| 2026-05-06 07:43 | 51.47868 | -0.38774 | 2044 ft | 202 kts | 48° |
| 2026-05-06 07:43 | 51.48832 | -0.36942 | 2524 ft | 227 kts | 48° |
| 2026-05-06 07:44 | 51.49887 | -0.34923 | 3283 ft | 241 kts | 49° |
| 2026-05-06 07:44 | 51.50960 | -0.32858 | 4289 ft | 245 kts | 49° |
| 2026-05-06 07:44 | 51.52036 | -0.30690 | 5201 ft | 254 kts | 55° |
| 2026-05-06 07:44 | 51.52757 | -0.28017 | 5964 ft | 266 kts | 69° |
| 2026-05-06 07:45 | 51.53350 | -0.25246 | 6846 ft | 271 kts | 69° |
| 2026-05-06 07:45 | 51.53973 | -0.22270 | 7741 ft | 278 kts | 69° |
| 2026-05-06 07:45 | 51.54907 | -0.19572 | 8549 ft | 279 kts | 42° |
| 2026-05-06 07:45 | 51.56453 | -0.17674 | 9401 ft | 282 kts | 34° |
| 2026-05-06 07:46 | 51.57894 | -0.15535 | 10200 ft | 290 kts | 44° |
| 2026-05-06 07:46 | 51.59294 | -0.12970 | 10510 ft | 315 kts | 48° |
| 2026-05-06 07:46 | 51.60728 | -0.10158 | 10904 ft | 332 kts | 49° |
| 2026-05-06 07:46 | 51.62214 | -0.07271 | 11583 ft | 337 kts | 48° |
| 2026-05-06 07:47 | 51.63743 | -0.04400 | 12302 ft | 341 kts | 47° |
| 2026-05-06 07:47 | 51.65328 | -0.01525 | 13008 ft | 344 kts | 46° |
| 2026-05-06 07:47 | 51.66955 | 0.01344 | 13686 ft | 348 kts | 46° |
| 2026-05-06 07:47 | 51.68615 | 0.04227 | 14310 ft | 353 kts | 46° |
| 2026-05-06 07:48 | 51.70302 | 0.07140 | 14927 ft | 358 kts | 46° |
| 2026-05-06 07:48 | 51.72011 | 0.10095 | 15540 ft | 362 kts | 46° |
| 2026-05-06 07:48 | 51.73738 | 0.13086 | 16143 ft | 366 kts | 46° |
| 2026-05-06 07:48 | 51.75443 | 0.16171 | 16721 ft | 371 kts | 51° |
| 2026-05-06 07:49 | 51.76820 | 0.19721 | 17284 ft | 376 kts | 63° |
| 2026-05-06 07:49 | 51.77748 | 0.23686 | 17854 ft | 380 kts | 75° |
| 2026-05-06 07:49 | 51.78294 | 0.27888 | 18414 ft | 384 kts | 78° |
| 2026-05-06 07:49 | 51.78899 | 0.32104 | 18991 ft | 387 kts | 76° |
| 2026-05-06 07:50 | 51.79591 | 0.36329 | 19546 ft | 391 kts | 75° |
| 2026-05-06 07:50 | 51.80321 | 0.40579 | 20106 ft | 395 kts | 75° |
| 2026-05-06 07:50 | 51.81057 | 0.44866 | 20682 ft | 398 kts | 75° |
| 2026-05-06 07:50 | 51.81785 | 0.49206 | 21253 ft | 401 kts | 75° |
| 2026-05-06 07:51 | 51.82495 | 0.53589 | 21809 ft | 405 kts | 76° |
| 2026-05-06 07:51 | 51.83192 | 0.58009 | 22355 ft | 408 kts | 76° |
| 2026-05-06 07:51 | 51.83889 | 0.62478 | 22879 ft | 411 kts | 76° |
| 2026-05-06 07:51 | 51.84585 | 0.66974 | 23400 ft | 414 kts | 76° |
| 2026-05-06 07:52 | 51.85285 | 0.71503 | 23884 ft | 417 kts | 76° |
| 2026-05-06 07:52 | 51.85992 | 0.76070 | 24362 ft | 420 kts | 76° |
| 2026-05-06 07:52 | 51.86709 | 0.80665 | 24855 ft | 422 kts | 76° |
| 2026-05-06 07:52 | 51.87431 | 0.85292 | 25332 ft | 425 kts | 76° |
| 2026-05-06 07:53 | 51.88153 | 0.89936 | 25797 ft | 427 kts | 77° |
| 2026-05-06 07:53 | 51.88865 | 0.94554 | 26245 ft | 429 kts | 77° |
| 2026-05-06 07:53 | 51.89589 | 0.99259 | 26714 ft | 431 kts | 77° |
| 2026-05-06 07:53 | 51.90312 | 1.03974 | 27160 ft | 433 kts | 77° |
| 2026-05-06 07:54 | 51.91036 | 1.08718 | 27601 ft | 435 kts | 77° |
| 2026-05-06 07:54 | 51.91760 | 1.13485 | 28033 ft | 437 kts | 77° |
| 2026-05-06 07:54 | 51.92484 | 1.18272 | 28453 ft | 439 kts | 77° |
| 2026-05-06 07:54 | 51.93213 | 1.23089 | 28858 ft | 441 kts | 77° |
| 2026-05-06 07:55 | 51.93944 | 1.27922 | 29244 ft | 443 kts | 77° |
| 2026-05-06 07:55 | 51.94674 | 1.32774 | 29618 ft | 445 kts | 77° |
| 2026-05-06 07:55 | 51.95406 | 1.37655 | 29982 ft | 446 kts | 77° |
| 2026-05-06 07:55 | 51.96138 | 1.42558 | 30332 ft | 448 kts | 77° |
| 2026-05-06 07:56 | 51.96871 | 1.47485 | 30659 ft | 451 kts | 77° |
| 2026-05-06 07:56 | 51.97606 | 1.52442 | 30974 ft | 453 kts | 77° |
| 2026-05-06 07:56 | 51.98346 | 1.57418 | 31273 ft | 455 kts | 77° |
| 2026-05-06 07:56 | 51.99088 | 1.62425 | 31600 ft | 457 kts | 77° |
| 2026-05-06 07:57 | 51.99837 | 1.67496 | 32036 ft | 456 kts | 77° |
| 2026-05-06 07:57 | 52.00561 | 1.72422 | 32449 ft | 455 kts | 77° |
| 2026-05-06 07:57 | 52.01293 | 1.77416 | 32835 ft | 455 kts | 77° |
| 2026-05-06 07:57 | 52.02021 | 1.82411 | 33231 ft | 455 kts | 77° |
| 2026-05-06 07:58 | 52.02743 | 1.87401 | 33651 ft | 453 kts | 77° |
| 2026-05-06 07:58 | 52.03461 | 1.92378 | 34060 ft | 453 kts | 77° |
| 2026-05-06 07:58 | 52.04176 | 1.97361 | 34453 ft | 452 kts | 77° |
| 2026-05-06 07:58 | 52.04890 | 2.02334 | 34818 ft | 452 kts | 77° |
| 2026-05-06 07:59 | 52.05604 | 2.07307 | 35162 ft | 453 kts | 77° |
| 2026-05-06 07:59 | 52.06322 | 2.12294 | 35502 ft | 453 kts | 77° |
| 2026-05-06 07:59 | 52.07039 | 2.17285 | 35813 ft | 454 kts | 78° |
| 2026-05-06 07:59 | 52.07752 | 2.22279 | 36119 ft | 454 kts | 78° |
| 2026-05-06 08:00 | 52.08461 | 2.27288 | 36407 ft | 455 kts | 78° |
| 2026-05-06 08:00 | 52.09166 | 2.32305 | 36665 ft | 456 kts | 78° |
| 2026-05-06 08:00 | 52.09869 | 2.37332 | 36962 ft | 456 kts | 78° |
| 2026-05-06 08:00 | 52.10568 | 2.42348 | 37309 ft | 454 kts | 78° |
| 2026-05-06 08:01 | 52.11261 | 2.47345 | 37664 ft | 452 kts | 78° |
| 2026-05-06 08:01 | 52.12010 | 2.52305 | 37937 ft | 453 kts | 76° |
| 2026-05-06 08:01 | 52.12886 | 2.57237 | 38174 ft | 453 kts | 73° |
| 2026-05-06 08:01 | 52.13848 | 2.62127 | 38406 ft | 454 kts | 72° |
| 2026-05-06 08:02 | 52.14847 | 2.67016 | 38610 ft | 455 kts | 72° |
| 2026-05-06 08:02 | 52.15846 | 2.71918 | 38811 ft | 456 kts | 73° |
| 2026-05-06 08:02 | 52.17779 | 2.81786 | 38924 ft | 458 kts | 74° |
| 2026-05-06 08:03 | 52.19624 | 2.91707 | 38921 ft | 458 kts | 74° |
| 2026-05-06 08:03 | 52.21457 | 3.01649 | 38928 ft | 458 kts | 74° |
| 2026-05-06 08:04 | 52.23303 | 3.11588 | 38918 ft | 458 kts | 74° |
| 2026-05-06 08:04 | 52.25141 | 3.21521 | 38934 ft | 458 kts | 74° |
| 2026-05-06 08:05 | 52.26432 | 3.31665 | 38923 ft | 456 kts | 82° |
| 2026-05-06 08:05 | 52.27505 | 3.41883 | 38923 ft | 457 kts | 82° |
| 2026-05-06 08:06 | 52.28582 | 3.52118 | 38921 ft | 457 kts | 82° |
| 2026-05-06 08:06 | 52.29650 | 3.62347 | 38930 ft | 457 kts | 82° |
| 2026-05-06 08:07 | 52.30710 | 3.72583 | 38920 ft | 457 kts | 82° |
| 2026-05-06 08:07 | 52.31762 | 3.82833 | 38921 ft | 457 kts | 82° |
| 2026-05-06 08:08 | 52.32800 | 3.93074 | 38919 ft | 456 kts | 82° |
| 2026-05-06 08:08 | 52.33823 | 4.03312 | 38915 ft | 456 kts | 82° |
| 2026-05-06 08:09 | 52.34845 | 4.13534 | 38903 ft | 456 kts | 82° |
| 2026-05-06 08:09 | 52.35856 | 4.23768 | 38897 ft | 455 kts | 82° |
| 2026-05-06 08:10 | 52.36861 | 4.33999 | 38889 ft | 456 kts | 82° |
| 2026-05-06 08:10 | 52.37855 | 4.44240 | 38889 ft | 456 kts | 82° |
| 2026-05-06 08:11 | 52.38845 | 4.54495 | 38889 ft | 456 kts | 82° |
| 2026-05-06 08:11 | 52.39824 | 4.64764 | 38891 ft | 456 kts | 83° |
| 2026-05-06 08:12 | 52.40795 | 4.75040 | 38894 ft | 457 kts | 83° |
| 2026-05-06 08:12 | 52.41752 | 4.85325 | 38895 ft | 457 kts | 83° |
| 2026-05-06 08:13 | 52.42700 | 4.95629 | 38892 ft | 457 kts | 83° |
| 2026-05-06 08:13 | 52.43641 | 5.05947 | 38893 ft | 458 kts | 83° |
| 2026-05-06 08:14 | 52.44576 | 5.16256 | 38889 ft | 457 kts | 83° |
| 2026-05-06 08:14 | 52.45507 | 5.26563 | 38883 ft | 457 kts | 83° |
| 2026-05-06 08:15 | 52.46426 | 5.36890 | 38876 ft | 458 kts | 83° |
| 2026-05-06 08:15 | 52.47308 | 5.46917 | 38874 ft | 458 kts | 83° |
| 2026-05-06 08:16 | 52.48207 | 5.57243 | 38873 ft | 457 kts | 84° |
| 2026-05-06 08:16 | 52.49096 | 5.67582 | 38871 ft | 458 kts | 84° |
| 2026-05-06 08:17 | 52.49978 | 5.77923 | 38870 ft | 457 kts | 84° |
| 2026-05-06 08:17 | 52.50850 | 5.88259 | 38868 ft | 457 kts | 84° |
| 2026-05-06 08:18 | 52.51709 | 5.98595 | 38869 ft | 457 kts | 84° |
| 2026-05-06 08:18 | 52.52566 | 6.08926 | 38866 ft | 456 kts | 84° |
| 2026-05-06 08:19 | 52.53410 | 6.19248 | 38867 ft | 457 kts | 84° |
| 2026-05-06 08:19 | 52.54239 | 6.29580 | 38871 ft | 456 kts | 84° |
| 2026-05-06 08:20 | 52.55060 | 6.39918 | 38874 ft | 457 kts | 84° |
| 2026-05-06 08:20 | 52.55876 | 6.50275 | 38874 ft | 457 kts | 84° |
| 2026-05-06 08:21 | 52.56685 | 6.60638 | 38873 ft | 457 kts | 84° |
| 2026-05-06 08:21 | 52.57355 | 6.69258 | 38871 ft | 457 kts | 85° |
| 2026-05-06 08:22 | 52.58147 | 6.79624 | 38869 ft | 457 kts | 85° |
| 2026-05-06 08:22 | 52.58938 | 6.90006 | 38865 ft | 457 kts | 85° |
| 2026-05-06 08:23 | 52.59839 | 7.02081 | 38870 ft | 458 kts | 85° |
| 2026-05-06 08:23 | 52.60472 | 7.10785 | 38862 ft | 457 kts | 85° |
| 2026-05-06 08:24 | 52.61228 | 7.21182 | 38860 ft | 458 kts | 85° |
| 2026-05-06 08:24 | 52.61974 | 7.31577 | 38857 ft | 458 kts | 85° |
| 2026-05-06 08:25 | 52.62712 | 7.41984 | 38859 ft | 458 kts | 85° |
| 2026-05-06 08:25 | 52.63443 | 7.52400 | 38861 ft | 458 kts | 85° |
| 2026-05-06 08:26 | 52.64169 | 7.62804 | 38860 ft | 458 kts | 85° |
| 2026-05-06 08:26 | 52.64877 | 7.73220 | 38861 ft | 458 kts | 86° |
| 2026-05-06 08:27 | 52.65574 | 7.83644 | 38859 ft | 458 kts | 86° |
| 2026-05-06 08:27 | 52.66277 | 7.94066 | 38858 ft | 458 kts | 86° |
| 2026-05-06 08:28 | 52.66959 | 8.04503 | 38855 ft | 458 kts | 86° |
| 2026-05-06 08:28 | 52.67629 | 8.14935 | 38856 ft | 458 kts | 86° |
| 2026-05-06 08:29 | 52.68290 | 8.25381 | 38858 ft | 458 kts | 86° |
| 2026-05-06 08:29 | 52.68947 | 8.35831 | 38852 ft | 459 kts | 86° |
| 2026-05-06 08:30 | 52.69596 | 8.46292 | 38852 ft | 459 kts | 86° |
| 2026-05-06 08:30 | 52.70239 | 8.56763 | 38854 ft | 459 kts | 86° |
| 2026-05-06 08:31 | 52.70869 | 8.67251 | 38855 ft | 459 kts | 87° |
| 2026-05-06 08:31 | 52.71489 | 8.77733 | 38857 ft | 459 kts | 87° |
| 2026-05-06 08:32 | 52.72099 | 8.88217 | 38857 ft | 459 kts | 87° |
| 2026-05-06 08:32 | 52.72702 | 8.98696 | 38857 ft | 459 kts | 87° |
| 2026-05-06 08:33 | 52.73298 | 9.09177 | 38858 ft | 459 kts | 87° |
| 2026-05-06 08:33 | 52.73882 | 9.19679 | 38854 ft | 459 kts | 87° |
| 2026-05-06 08:34 | 52.74735 | 9.35428 | 38844 ft | 459 kts | 88° |
| 2026-05-06 08:35 | 52.75299 | 9.45931 | 38841 ft | 459 kts | 88° |
| 2026-05-06 08:35 | 52.75836 | 9.56053 | 38837 ft | 459 kts | 88° |
| 2026-05-06 08:36 | 52.76381 | 9.66544 | 38831 ft | 459 kts | 88° |
| 2026-05-06 08:36 | 52.76913 | 9.77035 | 38823 ft | 458 kts | 88° |
| 2026-05-06 08:37 | 52.77435 | 9.87527 | 38823 ft | 458 kts | 88° |
| 2026-05-06 08:37 | 52.77943 | 9.98023 | 38822 ft | 458 kts | 88° |
| 2026-05-06 08:38 | 52.78444 | 10.08517 | 38821 ft | 459 kts | 88° |
| 2026-05-06 08:38 | 52.78920 | 10.18587 | 38822 ft | 459 kts | 88° |
| 2026-05-06 08:39 | 52.79415 | 10.29089 | 38822 ft | 459 kts | 88° |
| 2026-05-06 08:39 | 52.79895 | 10.39598 | 38822 ft | 459 kts | 88° |
| 2026-05-06 08:40 | 52.80362 | 10.50105 | 38821 ft | 459 kts | 89° |
| 2026-05-06 08:40 | 52.80823 | 10.60631 | 38822 ft | 459 kts | 89° |
| 2026-05-06 08:41 | 52.81270 | 10.71159 | 38823 ft | 459 kts | 89° |
| 2026-05-06 08:41 | 52.81703 | 10.81690 | 38829 ft | 459 kts | 89° |
| 2026-05-06 08:42 | 52.82136 | 10.92215 | 38833 ft | 459 kts | 89° |
| 2026-05-06 08:42 | 52.82560 | 11.02676 | 38831 ft | 459 kts | 89° |
| 2026-05-06 08:43 | 52.82969 | 11.13195 | 38832 ft | 459 kts | 89° |
| 2026-05-06 08:43 | 52.83348 | 11.23729 | 38832 ft | 459 kts | 90° |
| 2026-05-06 08:44 | 52.83699 | 11.34251 | 38832 ft | 458 kts | 90° |
| 2026-05-06 08:44 | 52.84042 | 11.44785 | 38829 ft | 458 kts | 90° |
| 2026-05-06 08:45 | 52.84382 | 11.55307 | 38830 ft | 458 kts | 90° |
| 2026-05-06 08:45 | 52.84710 | 11.65834 | 38831 ft | 458 kts | 90° |
| 2026-05-06 08:46 | 52.85021 | 11.76358 | 38831 ft | 458 kts | 90° |
| 2026-05-06 08:46 | 52.85328 | 11.86883 | 38831 ft | 458 kts | 90° |
| 2026-05-06 08:47 | 52.85634 | 11.97401 | 38831 ft | 458 kts | 90° |
| 2026-05-06 08:47 | 52.85931 | 12.07924 | 38832 ft | 458 kts | 90° |
| 2026-05-06 08:48 | 52.86218 | 12.18463 | 38836 ft | 458 kts | 90° |
| 2026-05-06 08:48 | 52.86488 | 12.29005 | 38831 ft | 459 kts | 91° |
| 2026-05-06 08:49 | 52.86753 | 12.39616 | 38825 ft | 458 kts | 91° |
| 2026-05-06 08:49 | 52.86996 | 12.49670 | 38820 ft | 458 kts | 91° |
| 2026-05-06 08:50 | 52.87238 | 12.60193 | 38817 ft | 457 kts | 91° |
| 2026-05-06 08:50 | 52.87471 | 12.70714 | 38809 ft | 458 kts | 91° |
| 2026-05-06 08:51 | 52.87704 | 12.81239 | 38807 ft | 458 kts | 91° |
| 2026-05-06 08:51 | 52.87930 | 12.91765 | 38808 ft | 457 kts | 91° |
| 2026-05-06 08:52 | 52.88136 | 13.02289 | 38805 ft | 457 kts | 91° |
| 2026-05-06 08:52 | 52.88326 | 13.12755 | 38802 ft | 458 kts | 91° |
| 2026-05-06 08:53 | 52.88516 | 13.23280 | 38801 ft | 458 kts | 91° |
| 2026-05-06 08:53 | 52.88707 | 13.33882 | 38799 ft | 457 kts | 91° |
| 2026-05-06 08:54 | 52.88875 | 13.44407 | 38793 ft | 457 kts | 91° |
| 2026-05-06 08:54 | 52.89034 | 13.54915 | 38787 ft | 456 kts | 91° |
| 2026-05-06 08:55 | 52.89186 | 13.65344 | 38781 ft | 455 kts | 92° |
| 2026-05-06 08:55 | 52.89327 | 13.75832 | 38786 ft | 456 kts | 92° |
| 2026-05-06 08:56 | 52.89459 | 13.86324 | 38784 ft | 456 kts | 92° |
| 2026-05-06 08:56 | 52.89582 | 13.96887 | 38783 ft | 456 kts | 92° |
| 2026-05-06 08:57 | 52.89698 | 14.07386 | 38784 ft | 456 kts | 92° |
| 2026-05-06 08:57 | 52.89802 | 14.17894 | 38781 ft | 457 kts | 92° |
| 2026-05-06 08:58 | 52.89890 | 14.28343 | 38790 ft | 457 kts | 92° |
| 2026-05-06 08:58 | 52.89520 | 14.38877 | 38793 ft | 455 kts | 98° |
| 2026-05-06 08:59 | 52.89017 | 14.49324 | 38795 ft | 455 kts | 98° |
| 2026-05-06 08:59 | 52.88504 | 14.59777 | 38793 ft | 455 kts | 98° |
| 2026-05-06 09:00 | 52.87971 | 14.70221 | 38796 ft | 456 kts | 98° |
| 2026-05-06 09:00 | 52.87429 | 14.80681 | 38794 ft | 456 kts | 98° |
| 2026-05-06 09:01 | 52.86887 | 14.91152 | 38792 ft | 457 kts | 98° |
| 2026-05-06 09:01 | 52.86330 | 15.01547 | 38783 ft | 457 kts | 98° |
| 2026-05-06 09:02 | 52.85768 | 15.12024 | 38786 ft | 457 kts | 98° |
| 2026-05-06 09:02 | 52.85197 | 15.22501 | 38776 ft | 458 kts | 99° |
| 2026-05-06 09:03 | 52.84610 | 15.32993 | 38776 ft | 458 kts | 99° |
| 2026-05-06 09:03 | 52.84016 | 15.43485 | 38775 ft | 459 kts | 99° |
| 2026-05-06 09:04 | 52.83416 | 15.53988 | 38773 ft | 459 kts | 99° |
| 2026-05-06 09:04 | 52.82904 | 15.62794 | 38777 ft | 459 kts | 99° |
| 2026-05-06 09:05 | 52.82281 | 15.73312 | 38773 ft | 460 kts | 99° |
| 2026-05-06 09:05 | 52.81638 | 15.83829 | 38773 ft | 460 kts | 100° |
| 2026-05-06 09:06 | 52.80770 | 15.94273 | 38771 ft | 458 kts | 103° |
| 2026-05-06 09:06 | 52.79706 | 16.04651 | 38773 ft | 458 kts | 104° |
| 2026-05-06 09:07 | 52.78634 | 16.15044 | 38762 ft | 459 kts | 103° |
| 2026-05-06 09:07 | 52.77619 | 16.25394 | 38760 ft | 460 kts | 103° |
| 2026-05-06 09:08 | 52.76606 | 16.35887 | 38758 ft | 460 kts | 103° |
| 2026-05-06 09:08 | 52.75577 | 16.46299 | 38756 ft | 459 kts | 103° |
| 2026-05-06 09:09 | 52.74533 | 16.56707 | 38754 ft | 460 kts | 103° |
| 2026-05-06 09:09 | 52.73489 | 16.67034 | 38752 ft | 459 kts | 103° |
| 2026-05-06 09:10 | 52.72427 | 16.77429 | 38751 ft | 459 kts | 103° |
| 2026-05-06 09:10 | 52.71358 | 16.87820 | 38752 ft | 460 kts | 103° |
| 2026-05-06 09:11 | 52.70284 | 16.98219 | 38751 ft | 460 kts | 103° |
| 2026-05-06 09:11 | 52.69199 | 17.08622 | 38753 ft | 460 kts | 103° |
| 2026-05-06 09:12 | 52.68102 | 17.19013 | 38757 ft | 460 kts | 103° |
| 2026-05-06 09:12 | 52.66993 | 17.29397 | 38762 ft | 460 kts | 103° |
| 2026-05-06 09:13 | 52.65885 | 17.39746 | 38780 ft | 458 kts | 104° |
| 2026-05-06 09:13 | 52.64765 | 17.50076 | 38773 ft | 458 kts | 104° |
| 2026-05-06 09:14 | 52.63639 | 17.60386 | 38768 ft | 457 kts | 104° |
| 2026-05-06 09:14 | 52.62503 | 17.70680 | 38764 ft | 457 kts | 104° |
| 2026-05-06 09:15 | 52.61361 | 17.80961 | 38761 ft | 457 kts | 104° |
| 2026-05-06 09:15 | 52.60210 | 17.91243 | 38762 ft | 457 kts | 104° |
| 2026-05-06 09:16 | 52.59047 | 18.01527 | 38750 ft | 458 kts | 104° |
| 2026-05-06 09:16 | 52.58452 | 18.06735 | 38509 ft | 469 kts | 104° |
| 2026-05-06 09:16 | 52.57840 | 18.12032 | 38262 ft | 474 kts | 104° |
| 2026-05-06 09:16 | 52.57221 | 18.17368 | 38002 ft | 476 kts | 104° |
| 2026-05-06 09:17 | 52.56597 | 18.22725 | 37405 ft | 478 kts | 104° |
| 2026-05-06 09:17 | 52.55972 | 18.28046 | 37046 ft | 471 kts | 105° |
| 2026-05-06 09:17 | 52.55358 | 18.33278 | 36337 ft | 463 kts | 105° |
| 2026-05-06 09:17 | 52.54746 | 18.38469 | 35123 ft | 467 kts | 105° |
| 2026-05-06 09:18 | 52.54129 | 18.43686 | 34255 ft | 462 kts | 105° |
| 2026-05-06 09:18 | 52.53522 | 18.48829 | 33436 ft | 459 kts | 105° |
| 2026-05-06 09:18 | 52.52905 | 18.54014 | 32374 ft | 467 kts | 105° |
| 2026-05-06 09:18 | 52.52280 | 18.59229 | 31910 ft | 461 kts | 105° |
| 2026-05-06 09:19 | 52.51660 | 18.64370 | 31317 ft | 457 kts | 105° |
| 2026-05-06 09:19 | 52.51044 | 18.69470 | 30731 ft | 454 kts | 105° |
| 2026-05-06 09:19 | 52.50430 | 18.74530 | 30143 ft | 450 kts | 105° |
| 2026-05-06 09:19 | 52.49818 | 18.79553 | 29559 ft | 447 kts | 105° |
| 2026-05-06 09:20 | 52.49212 | 18.84530 | 28974 ft | 443 kts | 105° |
| 2026-05-06 09:20 | 52.48609 | 18.89466 | 28386 ft | 440 kts | 105° |
| 2026-05-06 09:20 | 52.48008 | 18.94367 | 27812 ft | 437 kts | 105° |
| 2026-05-06 09:20 | 52.47409 | 18.99229 | 27251 ft | 433 kts | 105° |
| 2026-05-06 09:21 | 52.46810 | 19.04046 | 26677 ft | 430 kts | 105° |
| 2026-05-06 09:21 | 52.46212 | 19.08823 | 26132 ft | 426 kts | 105° |
| 2026-05-06 09:21 | 52.45608 | 19.13625 | 25592 ft | 422 kts | 105° |
| 2026-05-06 09:21 | 52.45028 | 19.18253 | 25108 ft | 418 kts | 105° |
| 2026-05-06 09:22 | 52.44444 | 19.22908 | 24611 ft | 415 kts | 105° |
| 2026-05-06 09:22 | 52.43858 | 19.27582 | 24133 ft | 412 kts | 105° |
| 2026-05-06 09:22 | 52.43290 | 19.32099 | 23667 ft | 409 kts | 105° |
| 2026-05-06 09:22 | 52.42714 | 19.36644 | 23218 ft | 405 kts | 105° |
| 2026-05-06 09:23 | 52.42137 | 19.41142 | 22774 ft | 401 kts | 105° |
| 2026-05-06 09:23 | 52.41565 | 19.45596 | 22304 ft | 398 kts | 105° |
| 2026-05-06 09:23 | 52.40992 | 19.50060 | 21836 ft | 394 kts | 105° |
| 2026-05-06 09:23 | 52.40436 | 19.54367 | 21380 ft | 390 kts | 105° |
| 2026-05-06 09:24 | 52.39875 | 19.58701 | 20907 ft | 387 kts | 105° |
| 2026-05-06 09:24 | 52.39322 | 19.62984 | 20428 ft | 383 kts | 106° |
| 2026-05-06 09:24 | 52.38765 | 19.67286 | 19937 ft | 379 kts | 106° |
| 2026-05-06 09:24 | 52.38234 | 19.71435 | 19459 ft | 377 kts | 104° |
| 2026-05-06 09:25 | 52.38010 | 19.75710 | 18966 ft | 378 kts | 92° |
| 2026-05-06 09:25 | 52.38293 | 19.79998 | 18551 ft | 383 kts | 80° |
| 2026-05-06 09:25 | 52.39085 | 19.84201 | 18237 ft | 389 kts | 70° |
| 2026-05-06 09:25 | 52.40103 | 19.88314 | 17893 ft | 389 kts | 70° |
| 2026-05-06 09:26 | 52.41112 | 19.92406 | 17553 ft | 388 kts | 70° |
| 2026-05-06 09:26 | 52.42117 | 19.96498 | 17208 ft | 386 kts | 70° |
| 2026-05-06 09:26 | 52.43108 | 20.00559 | 16873 ft | 384 kts | 70° |
| 2026-05-06 09:26 | 52.44097 | 20.04627 | 16539 ft | 382 kts | 70° |
| 2026-05-06 09:27 | 52.45073 | 20.08661 | 16202 ft | 380 kts | 70° |
| 2026-05-06 09:27 | 52.46044 | 20.12674 | 15873 ft | 378 kts | 70° |
| 2026-05-06 09:27 | 52.47011 | 20.16677 | 15534 ft | 376 kts | 70° |
| 2026-05-06 09:27 | 52.47970 | 20.20652 | 15214 ft | 374 kts | 70° |
| 2026-05-06 09:28 | 52.48923 | 20.24598 | 14905 ft | 369 kts | 71° |
| 2026-05-06 09:28 | 52.49825 | 20.28456 | 14773 ft | 354 kts | 76° |
| 2026-05-06 09:28 | 52.50244 | 20.32333 | 14611 ft | 338 kts | 91° |
| 2026-05-06 09:28 | 52.50068 | 20.36083 | 14385 ft | 324 kts | 107° |
| 2026-05-06 09:29 | 52.49375 | 20.39546 | 14187 ft | 316 kts | 121° |
| 2026-05-06 09:29 | 52.48324 | 20.42671 | 13960 ft | 312 kts | 125° |
| 2026-05-06 09:29 | 52.47245 | 20.45749 | 13704 ft | 311 kts | 125° |
| 2026-05-06 09:29 | 52.46170 | 20.48820 | 13456 ft | 310 kts | 125° |
| 2026-05-06 09:30 | 52.45101 | 20.51883 | 13226 ft | 308 kts | 125° |
| 2026-05-06 09:30 | 52.44039 | 20.54930 | 12966 ft | 307 kts | 125° |
| 2026-05-06 09:30 | 52.42982 | 20.57952 | 12726 ft | 306 kts | 125° |
| 2026-05-06 09:30 | 52.41924 | 20.60966 | 12482 ft | 304 kts | 125° |
| 2026-05-06 09:31 | 52.40868 | 20.63968 | 12240 ft | 303 kts | 125° |
| 2026-05-06 09:31 | 52.39818 | 20.66959 | 12000 ft | 302 kts | 125° |
| 2026-05-06 09:31 | 52.38775 | 20.69931 | 11765 ft | 301 kts | 125° |
| 2026-05-06 09:31 | 52.37736 | 20.72891 | 11455 ft | 299 kts | 126° |
| 2026-05-06 09:32 | 52.36702 | 20.75834 | 11154 ft | 297 kts | 125° |
| 2026-05-06 09:32 | 52.35672 | 20.78757 | 10858 ft | 296 kts | 125° |
| 2026-05-06 09:32 | 52.34647 | 20.81663 | 10563 ft | 294 kts | 125° |
| 2026-05-06 09:32 | 52.33628 | 20.84548 | 10262 ft | 292 kts | 125° |
| 2026-05-06 09:33 | 52.32610 | 20.87418 | 9966 ft | 291 kts | 124° |
| 2026-05-06 09:33 | 52.31596 | 20.90266 | 9681 ft | 290 kts | 124° |
| 2026-05-06 09:33 | 52.30581 | 20.93111 | 9391 ft | 289 kts | 124° |
| 2026-05-06 09:33 | 52.29571 | 20.95944 | 9085 ft | 288 kts | 124° |
| 2026-05-06 09:34 | 52.28568 | 20.98762 | 8800 ft | 286 kts | 124° |
| 2026-05-06 09:34 | 52.27488 | 21.01458 | 8519 ft | 281 kts | 134° |
| 2026-05-06 09:34 | 52.26083 | 21.03624 | 8243 ft | 276 kts | 148° |
| 2026-05-06 09:34 | 52.24441 | 21.05178 | 7962 ft | 272 kts | 156° |
| 2026-05-06 09:35 | 52.22766 | 21.06604 | 7679 ft | 271 kts | 155° |
| 2026-05-06 09:35 | 52.21106 | 21.08035 | 7408 ft | 270 kts | 155° |
| 2026-05-06 09:35 | 52.19456 | 21.09465 | 7188 ft | 265 kts | 155° |
| 2026-05-06 09:35 | 52.17853 | 21.10853 | 7061 ft | 256 kts | 155° |
| 2026-05-06 09:36 | 52.16303 | 21.12194 | 6934 ft | 248 kts | 155° |
| 2026-05-06 09:36 | 52.14806 | 21.13489 | 6813 ft | 240 kts | 156° |
| 2026-05-06 09:36 | 52.13354 | 21.14757 | 6696 ft | 235 kts | 155° |
| 2026-05-06 09:36 | 52.11922 | 21.16016 | 6596 ft | 233 kts | 155° |
| 2026-05-06 09:37 | 52.10494 | 21.17269 | 6418 ft | 233 kts | 155° |
| 2026-05-06 09:37 | 52.09069 | 21.18514 | 6233 ft | 232 kts | 155° |
| 2026-05-06 09:37 | 52.07650 | 21.19756 | 6017 ft | 231 kts | 155° |
| 2026-05-06 09:37 | 52.06239 | 21.20984 | 5802 ft | 230 kts | 155° |
| 2026-05-06 09:38 | 52.04828 | 21.22212 | 5588 ft | 229 kts | 155° |
| 2026-05-06 09:38 | 52.03430 | 21.23431 | 5383 ft | 229 kts | 154° |
| 2026-05-06 09:38 | 52.02028 | 21.24652 | 5183 ft | 228 kts | 154° |
| 2026-05-06 09:38 | 52.00635 | 21.25869 | 4968 ft | 227 kts | 155° |
| 2026-05-06 09:39 | 51.99240 | 21.27071 | 4917 ft | 227 kts | 155° |
| 2026-05-06 09:39 | 51.97853 | 21.28261 | 4869 ft | 221 kts | 156° |
| 2026-05-06 09:39 | 51.96526 | 21.29404 | 4757 ft | 212 kts | 156° |
| 2026-05-06 09:39 | 51.95253 | 21.30504 | 4627 ft | 203 kts | 156° |
| 2026-05-06 09:40 | 51.94031 | 21.31558 | 4500 ft | 196 kts | 156° |
| 2026-05-06 09:40 | 51.92855 | 21.32571 | 4365 ft | 187 kts | 156° |
| 2026-05-06 09:40 | 51.90562 | 21.34288 | 4127 ft | 177 kts | 176° |
| 2026-05-06 09:41 | 51.89363 | 21.34109 | 3994 ft | 173 kts | 201° |
| 2026-05-06 09:41 | 51.88362 | 21.33067 | 3950 ft | 172 kts | 226° |
| 2026-05-06 09:41 | 51.87709 | 21.31409 | 4011 ft | 178 kts | 239° |
| 2026-05-06 09:41 | 51.87128 | 21.29637 | 4021 ft | 179 kts | 239° |
| 2026-05-06 09:42 | 51.86546 | 21.27866 | 4014 ft | 178 kts | 238° |
| 2026-05-06 09:42 | 51.86118 | 21.25977 | 4011 ft | 183 kts | 260° |
| 2026-05-06 09:42 | 51.86316 | 21.23904 | 4016 ft | 194 kts | 290° |
| 2026-05-06 09:42 | 51.87191 | 21.22216 | 4020 ft | 204 kts | 322° |
| 2026-05-06 09:43 | 51.88446 | 21.21100 | 4019 ft | 207 kts | 328° |
| 2026-05-06 09:43 | 51.89715 | 21.20017 | 4020 ft | 207 kts | 328° |
| 2026-05-06 09:43 | 51.90994 | 21.18924 | 4028 ft | 207 kts | 328° |
| 2026-05-06 09:43 | 51.92270 | 21.17832 | 3925 ft | 207 kts | 328° |
| 2026-05-06 09:44 | 51.93539 | 21.16746 | 3799 ft | 206 kts | 328° |
| 2026-05-06 09:44 | 51.94803 | 21.15655 | 3672 ft | 206 kts | 327° |
| 2026-05-06 09:44 | 51.96065 | 21.14563 | 3560 ft | 204 kts | 328° |
| 2026-05-06 09:44 | 51.97311 | 21.13489 | 3467 ft | 202 kts | 328° |
| 2026-05-06 09:45 | 51.98131 | 21.12779 | 3415 ft | 202 kts | 328° |
| 2026-05-06 09:45 | 51.99366 | 21.11707 | 3337 ft | 201 kts | 327° |
| 2026-05-06 09:45 | 52.00600 | 21.10637 | 3257 ft | 201 kts | 328° |
| 2026-05-06 09:45 | 52.02224 | 21.09227 | 3129 ft | 199 kts | 328° |
| 2026-05-06 09:46 | 52.03049 | 21.08512 | 3064 ft | 198 kts | 329° |
| 2026-05-06 09:46 | 52.04213 | 21.07502 | 3003 ft | 182 kts | 329° |
| 2026-05-06 09:46 | 52.05295 | 21.06556 | 2783 ft | 177 kts | 328° |
| 2026-05-06 09:46 | 52.06403 | 21.05582 | 2431 ft | 182 kts | 329° |
| 2026-05-06 09:47 | 52.07498 | 21.04627 | 2154 ft | 175 kts | 329° |
| 2026-05-06 09:47 | 52.08530 | 21.03728 | 1920 ft | 163 kts | 329° |
| 2026-05-06 09:47 | 52.09508 | 21.02875 | 1706 ft | 155 kts | 329° |
| 2026-05-06 09:47 | 52.10435 | 21.02070 | 1506 ft | 148 kts | 329° |
| 2026-05-06 09:48 | 52.11333 | 21.01288 | 1310 ft | 145 kts | 329° |
| 2026-05-06 09:48 | 52.12216 | 21.00517 | 1114 ft | 144 kts | 330° |
| 2026-05-06 09:48 | 52.13095 | 20.99751 | 930 ft | 143 kts | 330° |
| 2026-05-06 09:48 | 52.13966 | 20.98991 | 741 ft | 141 kts | 331° |
| 2026-05-06 09:49 | 52.14835 | 20.98232 | 559 ft | 142 kts | 330° |
| 2026-05-06 09:49 | 52.15700 | 20.97483 | 372 ft | 143 kts | 330° |
| 2026-05-06 09:49 | 52.16514 | 20.96767 | 339 ft | 117 kts | 330° |
| 2026-05-06 09:49 | 52.17051 | 20.96296 | 335 ft | 49 kts | 336° |
| 2026-05-06 09:50 | 52.17272 | 20.96245 | 336 ft | 24 kts | 360° |
| 2026-05-06 09:50 | 52.17364 | 20.96251 | 337 ft | 10 kts | 16° |
| 2026-05-06 09:50 | 52.17415 | 20.96347 | 336 ft | 13 kts | 62° |
| 2026-05-06 09:50 | 52.17463 | 20.96489 | 337 ft | 16 kts | 61° |
| 2026-05-06 09:51 | 52.17532 | 20.96641 | 338 ft | 18 kts | 59° |
| 2026-05-06 09:51 | 52.17600 | 20.96818 | 335 ft | 14 kts | 57° |
| 2026-05-06 09:51 | 52.17639 | 20.96915 | 338 ft | 11 kts | 57° |
| 2026-05-06 09:51 | 52.17679 | 20.97041 | 337 ft | 14 kts | 83° |
| 2026-05-06 09:52 | 52.17630 | 20.97134 | 334 ft | 7 kts | 152° |
| 2026-05-06 09:52 | 52.17575 | 20.97177 | 336 ft | 8 kts | 154° |
| 2026-05-06 09:52 | 52.17531 | 20.97135 | 335 ft | 10 kts | 240° |
| 2026-05-06 09:52 | 52.17500 | 20.97019 | 336 ft | 10 kts | 246° |
| 2026-05-06 09:53 | 52.17481 | 20.96961 | 335 ft | 3 kts | 242° |
| 2026-05-06 09:53 | 52.17477 | 20.96948 | 335 ft | 1 kts | 242° |
| 2026-05-06 09:53 | 52.17477 | 20.96947 | 339 ft | 0 kts | 242° |